Arch Cape, Oregon
Current Conditions -  °F | °C
As of 11:06 PM on Tuesday 21 Oct 2014 (Local Time) from KAST Reporting Station
Overcast Overcast  
Wind Chill: 57°   Ceiling: 3200
Heat Index: 57°   Visibility: 10mi
Dew Point: 51°   Wind: 10mph
Humidity: 81%   Direction: 150°SSE
Pressure: 29.72"   Gusts: NA
Location:  45.8°N, 123.96°W
Report Text: KAST 220606Z AUTO 15009KT 10SM OVC032 14/11 A2972 RMK AO2 RAE06 P0000 T01390106
Loading
Personal Weather Stations






























Interactive Weather Map
Tropical Storm Tracking
New forecast layout! Learn more

10-Day Weather Forecast

Advertisements
Track Severe Weather on mobile